Time;durP1;ratioP1;P1;durP2;ratioP2;P2;SDS_P1;SDS_P2;PMS_P1;PMS_P2;Temp;Humidity;BMP_temperature;BMP_pressure;BME280_temperature;BME280_humidity;BME280_pressure;Samples;Min_cycle;Max_cycle;Signal;HPM_P1;HPM_P2
2022/10/08 00:00:51;;;;;;;10.90;2.10;;;13.60;99.90;;;;;;4993289;28;20042;-72
2022/10/08 00:03:19;;;;;;;9.98;2.33;;;13.50;99.90;;;;;;4992317;28;20042;-72
2022/10/08 00:05:59;;;;;;;8.20;2.05;;;13.50;99.90;;;;;;4992633;28;20500;-72
2022/10/08 00:08:26;;;;;;;8.38;2.25;;;13.50;99.90;;;;;;4992178;28;20057;-71
2022/10/08 00:10:57;;;;;;;7.47;2.20;;;13.50;99.90;;;;;;4990885;28;20201;-71
2022/10/08 00:13:25;;;;;;;10.65;2.35;;;13.50;99.90;;;;;;4992203;28;20050;-72
2022/10/08 00:15:51;;;;;;;5.93;2.00;;;13.50;99.90;;;;;;5023227;28;20046;-72
2022/10/08 00:18:18;;;;;;;8.02;2.10;;;13.50;99.90;;;;;;4992328;28;20039;-72
2022/10/08 00:20:44;;;;;;;9.95;2.35;;;13.50;99.90;;;;;;4993217;28;20141;-72
2022/10/08 00:23:09;;;;;;;7.63;2.10;;;13.50;99.90;;;;;;4990242;28;20046;-72
2022/10/08 00:25:41;;;;;;;7.97;1.80;;;13.40;99.90;;;;;;4992152;28;20488;-72
2022/10/08 00:28:12;;;;;;;10.13;2.10;;;13.40;99.90;;;;;;4976323;28;20435;-72
2022/10/08 00:30:39;;;;;;;10.83;2.10;;;13.30;99.90;;;;;;5024978;28;20038;-72
2022/10/08 00:33:07;;;;;;;4.93;1.45;;;13.30;99.90;;;;;;4976489;28;20050;-72
2022/10/08 00:35:39;;;;;;;7.35;1.90;;;13.30;99.90;;;;;;5008024;28;20540;-72
2022/10/08 00:38:06;;;;;;;6.55;1.80;;;13.40;99.90;;;;;;4992990;28;20603;-72
2022/10/08 00:40:44;;;;;;;7.75;1.67;;;13.40;99.90;;;;;;4992659;28;20503;-72
2022/10/08 00:43:14;;;;;;;6.85;1.95;;;13.40;99.90;;;;;;4992339;28;20038;-73
2022/10/08 00:45:43;;;;;;;6.40;1.70;;;13.40;99.90;;;;;;4991294;28;20054;-72
2022/10/08 00:48:19;;;;;;;8.32;1.80;;;13.50;99.90;;;;;;4991117;28;20049;-73
2022/10/08 00:50:46;;;;;;;6.80;1.70;;;13.40;99.90;;;;;;5008983;28;20042;-72
2022/10/08 00:53:12;;;;;;;6.53;1.95;;;13.40;99.90;;;;;;4991787;28;20448;-71
2022/10/08 00:55:40;;;;;;;6.63;1.60;;;13.40;99.90;;;;;;4991770;28;20049;-72
2022/10/08 00:58:15;;;;;;;8.68;1.90;;;13.40;99.90;;;;;;4992312;28;20054;-72
2022/10/08 01:00:41;;;;;;;8.55;1.50;;;13.40;99.90;;;;;;4992436;28;20121;-71
2022/10/08 01:03:07;;;;;;;6.22;1.60;;;13.60;99.90;;;;;;5007999;28;20177;-72
2022/10/08 01:06:10;;;;;;;7.45;1.55;;;13.60;99.90;;;;;;4991476;28;20129;-71
2022/10/08 01:09:01;;;;;;;7.20;1.60;;;13.60;99.90;;;;;;4967031;28;20111;-71
2022/10/08 01:11:51;;;;;;;5.83;1.50;;;13.60;99.90;;;;;;4992441;28;20443;-71
2022/10/08 01:14:38;;;;;;;8.88;1.60;;;13.50;99.90;;;;;;4973236;28;20042;-71
2022/10/08 01:17:20;;;;;;;6.65;1.42;;;13.60;99.90;;;;;;5012343;28;20117;-71
2022/10/08 01:20:04;;;;;;;7.13;1.60;;;13.50;99.90;;;;;;4996384;28;20042;-71
2022/10/08 01:22:51;;;;;;;8.75;1.77;;;13.40;99.90;;;;;;4995578;28;20527;-71
2022/10/08 01:25:40;;;;;;;7.00;1.20;;;13.30;99.90;;;;;;5019088;28;20042;-71
2022/10/08 01:28:16;;;;;;;5.78;1.42;;;13.40;99.90;;;;;;5012504;28;20484;-71
2022/10/08 01:30:58;;;;;;;6.35;1.60;;;13.30;99.90;;;;;;4979927;28;20093;-71
2022/10/08 01:33:36;;;;;;;9.23;1.60;;;13.30;99.90;;;;;;5011805;28;20492;-71
2022/10/08 01:36:04;;;;;;;4.80;1.30;;;13.20;99.90;;;;;;4978869;28;20046;-71
2022/10/08 01:38:34;;;;;;;5.72;1.17;;;13.10;99.90;;;;;;4979708;28;20034;-71
2022/10/08 01:41:04;;;;;;;6.68;1.10;;;13.20;99.90;;;;;;5012192;28;20117;-70
2022/10/08 01:43:34;;;;;;;7.88;1.50;;;13.20;99.90;;;;;;4994906;28;20074;-70
2022/10/08 01:46:06;;;;;;;4.32;1.20;;;13.20;99.90;;;;;;4978144;28;20069;-70
2022/10/08 01:48:34;;;;;;;3.88;1.40;;;13.20;99.90;;;;;;5012345;28;20459;-70
2022/10/08 01:51:32;;;;;;;5.93;1.40;;;13.20;99.90;;;;;;4995931;28;20053;-70
2022/10/08 01:54:02;;;;;;;5.68;1.60;;;13.20;99.90;;;;;;5015524;28;20065;-70
2022/10/08 01:56:30;;;;;;;4.60;1.33;;;13.20;99.90;;;;;;4994655;28;20031;-71
2022/10/08 01:59:08;;;;;;;4.05;1.38;;;13.20;99.90;;;;;;5011804;28;20093;-71
2022/10/08 02:01:55;;;;;;;8.10;1.70;;;13.10;99.90;;;;;;4994498;28;20038;-71
2022/10/08 02:04:33;;;;;;;7.07;1.63;;;13.10;99.90;;;;;;5011118;28;20065;-71
2022/10/08 02:07:07;;;;;;;5.03;1.63;;;13.10;99.90;;;;;;4992232;28;20098;-71
2022/10/08 02:09:39;;;;;;;4.72;1.60;;;13.10;99.90;;;;;;4992063;28;20042;-71
2022/10/08 02:12:06;;;;;;;5.45;1.33;;;13.10;99.90;;;;;;4992440;28;20073;-70
2022/10/08 02:14:34;;;;;;;7.65;1.63;;;13.10;99.90;;;;;;4989094;28;20038;-70
2022/10/08 02:17:17;;;;;;;5.07;1.35;;;13.00;99.90;;;;;;4978250;28;20117;-70
2022/10/08 02:20:07;;;;;;;7.68;1.60;;;13.00;99.90;;;;;;4979294;28;20129;-70
2022/10/08 02:22:57;;;;;;;5.97;1.48;;;13.00;99.90;;;;;;4994167;28;20591;-71
2022/10/08 02:25:32;;;;;;;5.10;1.42;;;13.00;99.90;;;;;;4994132;28;20042;-71
2022/10/08 02:28:16;;;;;;;5.72;1.33;;;13.00;99.90;;;;;;4978090;28;20044;-71
2022/10/08 02:30:51;;;;;;;4.15;1.30;;;12.90;99.90;;;;;;5027127;28;20042;-71
2022/10/08 02:33:31;;;;;;;3.90;1.20;;;12.80;99.90;;;;;;5011418;28;20475;-71
2022/10/08 02:36:01;;;;;;;6.47;1.70;;;12.80;99.90;;;;;;4991161;28;20496;-70
2022/10/08 02:38:33;;;;;;;7.85;2.30;;;12.80;99.90;;;;;;5010489;28;20044;-71
2022/10/08 02:41:02;;;;;;;6.53;1.80;;;12.80;99.90;;;;;;4998491;28;20040;-71
2022/10/08 02:43:31;;;;;;;7.78;2.10;;;12.80;99.90;;;;;;5010844;28;20080;-70
2022/10/08 02:46:02;;;;;;;4.75;1.40;;;12.80;99.90;;;;;;4987309;28;20069;-70
2022/10/08 02:48:32;;;;;;;7.03;1.80;;;12.90;99.90;;;;;;4991717;28;20098;-71
2022/10/08 02:51:06;;;;;;;6.22;1.83;;;12.90;99.90;;;;;;4988001;28;20142;-71
2022/10/08 02:53:35;;;;;;;8.43;2.30;;;12.80;99.90;;;;;;4976401;28;20084;-71
2022/10/08 02:56:08;;;;;;;6.75;2.10;;;12.80;99.90;;;;;;4977263;28;20053;-71
2022/10/08 02:58:34;;;;;;;7.13;2.10;;;12.80;99.90;;;;;;4977247;28;20133;-71
2022/10/08 03:01:27;;;;;;;7.07;2.00;;;12.80;99.90;;;;;;4993328;28;20072;-71
2022/10/08 03:04:09;;;;;;;9.55;2.10;;;12.90;99.90;;;;;;4998893;28;20057;-71
2022/10/08 03:06:35;;;;;;;7.68;2.03;;;12.80;99.90;;;;;;4992926;28;20042;-70
2022/10/08 03:09:03;;;;;;;8.32;1.98;;;12.80;99.90;;;;;;4992828;28;20041;-70
2022/10/08 03:11:30;;;;;;;7.47;1.92;;;12.70;99.90;;;;;;4993706;28;20046;-70
2022/10/08 03:13:58;;;;;;;6.60;2.03;;;12.80;99.90;;;;;;4992815;28;20046;-71
2022/10/08 03:16:35;;;;;;;5.07;1.83;;;12.70;99.90;;;;;;4993693;28;20504;-70
2022/10/08 03:19:02;;;;;;;7.43;1.95;;;12.70;99.90;;;;;;4974603;28;20039;-70
2022/10/08 03:21:28;;;;;;;7.07;1.90;;;12.70;99.90;;;;;;4974884;28;20401;-70
2022/10/08 03:23:54;;;;;;;6.80;1.90;;;12.60;99.90;;;;;;4991016;28;20142;-70
2022/10/08 03:26:19;;;;;;;5.45;2.00;;;12.50;99.90;;;;;;4958465;28;20130;-70
2022/10/08 03:28:45;;;;;;;5.35;2.22;;;12.60;99.90;;;;;;4958406;28;20374;-70
2022/10/08 03:31:10;;;;;;;8.70;2.20;;;12.50;99.90;;;;;;5024291;28;20072;-70
2022/10/08 03:33:36;;;;;;;6.22;2.20;;;12.50;99.90;;;;;;4993810;28;20038;-70
2022/10/08 03:36:01;;;;;;;6.68;2.50;;;12.60;99.90;;;;;;4993706;28;20518;-71
2022/10/08 03:38:27;;;;;;;6.53;2.05;;;12.50;99.90;;;;;;4993431;28;20521;-71
2022/10/08 03:40:55;;;;;;;7.57;2.30;;;12.50;99.90;;;;;;5009851;28;20038;-71
2022/10/08 03:43:22;;;;;;;6.50;2.35;;;12.50;99.90;;;;;;4977430;28;20053;-71
2022/10/08 03:45:50;;;;;;;8.27;2.15;;;12.50;99.90;;;;;;5009245;28;20093;-71
2022/10/08 03:48:15;;;;;;;7.32;2.40;;;12.50;99.90;;;;;;4990452;28;20464;-71
2022/10/08 03:51:09;;;;;;;9.13;2.15;;;12.50;99.90;;;;;;4958014;28;20128;-71
2022/10/08 03:53:36;;;;;;;8.15;1.95;;;12.60;99.90;;;;;;4990116;28;20043;-71
2022/10/08 03:56:04;;;;;;;6.47;1.75;;;12.50;99.90;;;;;;5006527;28;20042;-71
2022/10/08 03:58:30;;;;;;;6.90;2.03;;;12.50;99.90;;;;;;4989951;28;20055;-71
2022/10/08 04:00:57;;;;;;;8.25;2.10;;;12.40;99.90;;;;;;4989450;28;20047;-70
2022/10/08 04:03:24;;;;;;;8.15;1.95;;;12.40;99.90;;;;;;5007569;28;20049;-71
2022/10/08 04:05:50;;;;;;;5.07;1.77;;;12.50;99.90;;;;;;5003965;28;20120;-71
2022/10/08 04:08:15;;;;;;;7.05;1.90;;;12.40;99.90;;;;;;4996430;28;20132;-71
2022/10/08 04:10:41;;;;;;;8.40;1.75;;;12.40;99.90;;;;;;4995234;28;20077;-71
2022/10/08 04:13:06;;;;;;;10.70;2.40;;;12.40;99.90;;;;;;5009316;28;20042;-71
2022/10/08 04:15:32;;;;;;;9.50;1.80;;;12.40;99.90;;;;;;4976043;28;20049;-70
2022/10/08 04:17:57;;;;;;;8.27;2.10;;;12.40;99.90;;;;;;5009399;28;20042;-70
2022/10/08 04:20:23;;;;;;;6.82;1.63;;;12.40;99.90;;;;;;4992810;28;20121;-70
2022/10/08 04:22:49;;;;;;;8.25;2.15;;;12.40;99.90;;;;;;5025625;28;20042;-70
2022/10/08 04:25:14;;;;;;;8.13;2.53;;;12.40;99.90;;;;;;4976668;28;20078;-70
2022/10/08 04:27:40;;;;;;;5.63;1.90;;;12.40;99.90;;;;;;4993149;28;20118;-70
2022/10/08 04:30:06;;;;;;;6.90;1.83;;;12.40;99.90;;;;;;4992799;28;20038;-70
2022/10/08 04:32:32;;;;;;;8.70;2.20;;;12.30;99.90;;;;;;4976554;28;20038;-70
2022/10/08 04:34:57;;;;;;;9.35;2.45;;;12.30;99.90;;;;;;4992776;28;20049;-70
2022/10/08 04:37:23;;;;;;;6.65;2.30;;;12.30;99.90;;;;;;4992363;28;20527;-70
2022/10/08 04:39:49;;;;;;;6.80;2.10;;;12.30;99.90;;;;;;5025549;28;20038;-70
2022/10/08 04:42:14;;;;;;;8.45;2.30;;;12.30;99.90;;;;;;5025481;28;20121;-70
2022/10/08 04:44:40;;;;;;;8.68;2.05;;;12.30;99.90;;;;;;5024075;28;20085;-70
2022/10/08 04:47:05;;;;;;;7.80;2.20;;;12.30;99.90;;;;;;4992603;28;20042;-70
2022/10/08 04:49:31;;;;;;;5.80;2.20;;;12.30;99.90;;;;;;4976474;28;20049;-70
2022/10/08 04:51:57;;;;;;;7.68;2.63;;;12.30;99.90;;;;;;4992232;28;20042;-70
2022/10/08 04:54:22;;;;;;;6.55;2.15;;;12.30;99.90;;;;;;4976063;28;20053;-70
2022/10/08 04:56:48;;;;;;;9.43;2.40;;;12.30;99.90;;;;;;5025346;28;20062;-70
2022/10/08 04:59:14;;;;;;;6.93;2.22;;;12.20;99.90;;;;;;5012267;28;20053;-70
2022/10/08 05:01:39;;;;;;;11.20;2.58;;;12.20;99.90;;;;;;5024337;28;20037;-70
2022/10/08 05:04:05;;;;;;;6.88;2.53;;;12.20;99.90;;;;;;4990788;28;20452;-70
2022/10/08 05:06:31;;;;;;;10.50;2.20;;;12.20;99.90;;;;;;4992748;28;20097;-70
2022/10/08 05:08:58;;;;;;;9.73;2.58;;;12.10;99.90;;;;;;5008272;28;20373;-70
2022/10/08 05:11:25;;;;;;;7.82;2.50;;;12.10;99.90;;;;;;4990389;28;20447;-71
2022/10/08 05:13:52;;;;;;;8.48;1.80;;;12.10;99.90;;;;;;4988076;28;20046;-70
2022/10/08 05:16:19;;;;;;;7.10;2.40;;;12.10;99.90;;;;;;4991421;28;20073;-70
2022/10/08 05:18:45;;;;;;;8.88;2.20;;;12.10;99.90;;;;;;5006091;28;20035;-70
2022/10/08 05:21:13;;;;;;;7.25;2.10;;;12.00;99.90;;;;;;4990254;28;20038;-70
2022/10/08 05:23:41;;;;;;;7.50;2.03;;;12.00;99.90;;;;;;4991180;28;20038;-70
2022/10/08 05:26:16;;;;;;;8.73;2.15;;;11.90;99.90;;;;;;5007866;28;20045;-70
2022/10/08 05:28:43;;;;;;;6.72;2.05;;;11.90;99.90;;;;;;4990732;28;20042;-70
2022/10/08 05:31:08;;;;;;;8.45;2.05;;;11.90;99.90;;;;;;4991338;28;20129;-70
2022/10/08 05:33:35;;;;;;;8.88;2.25;;;11.90;99.90;;;;;;4992164;28;20234;-70
2022/10/08 05:36:05;;;;;;;9.68;1.90;;;11.90;99.90;;;;;;4990609;28;20096;-70
2022/10/08 05:38:31;;;;;;;8.98;2.22;;;11.80;99.90;;;;;;4991618;28;20084;-70
2022/10/08 05:41:15;;;;;;;6.88;2.10;;;11.70;99.90;;;;;;4988983;28;20453;-70
2022/10/08 05:43:41;;;;;;;9.13;2.20;;;11.70;99.90;;;;;;4975332;28;20065;-70
2022/10/08 05:46:07;;;;;;;10.88;2.20;;;11.70;99.90;;;;;;4995017;28;20500;-70
2022/10/08 05:48:33;;;;;;;8.20;1.75;;;11.70;99.90;;;;;;4975026;28;20050;-70
2022/10/08 05:51:23;;;;;;;6.97;1.90;;;11.70;99.90;;;;;;5001567;28;20042;-70
2022/10/08 05:53:50;;;;;;;8.50;1.95;;;11.70;99.90;;;;;;5022799;28;20096;-70
2022/10/08 05:56:18;;;;;;;10.20;1.92;;;11.70;99.90;;;;;;5007643;28;20034;-70
2022/10/08 05:58:45;;;;;;;9.68;2.25;;;11.60;99.90;;;;;;4974626;28;20058;-70
2022/10/08 06:01:16;;;;;;;8.73;2.03;;;11.60;99.90;;;;;;5005555;28;20057;-70
2022/10/08 06:03:46;;;;;;;8.65;1.80;;;11.60;99.90;;;;;;4992580;28;20634;-70
2022/10/08 06:06:12;;;;;;;7.35;1.50;;;11.70;99.90;;;;;;5010732;28;20046;-70
2022/10/08 06:08:37;;;;;;;6.47;1.70;;;11.60;99.90;;;;;;4992987;28;20487;-70
2022/10/08 06:11:04;;;;;;;8.73;2.05;;;11.60;99.90;;;;;;4994202;28;20407;-70
2022/10/08 06:13:30;;;;;;;6.28;1.88;;;11.70;99.90;;;;;;4978420;28;20422;-70
2022/10/08 06:16:08;;;;;;;8.85;1.70;;;11.60;99.90;;;;;;4993436;28;20148;-70
2022/10/08 06:18:39;;;;;;;7.15;1.88;;;11.60;99.90;;;;;;4993234;28;20100;-70
2022/10/08 06:21:07;;;;;;;8.55;1.80;;;11.60;99.90;;;;;;4976875;28;20392;-70
2022/10/08 06:23:33;;;;;;;7.05;1.63;;;11.50;99.90;;;;;;4994555;28;20400;-70
2022/10/08 06:26:04;;;;;;;8.88;2.00;;;11.50;99.90;;;;;;5010529;28;20120;-70
2022/10/08 06:28:30;;;;;;;7.88;1.50;;;11.60;99.90;;;;;;4994637;28;20451;-70
2022/10/08 06:30:55;;;;;;;7.30;2.22;;;11.60;99.90;;;;;;4977011;28;20049;-70
2022/10/08 06:33:21;;;;;;;5.88;1.65;;;11.60;99.90;;;;;;4993183;28;20042;-70
2022/10/08 06:35:47;;;;;;;9.05;2.38;;;11.70;99.90;;;;;;4992324;28;20038;-70
2022/10/08 06:38:12;;;;;;;8.38;1.67;;;11.70;99.90;;;;;;5001477;28;20043;-70
2022/10/08 06:40:39;;;;;;;9.32;1.95;;;11.70;99.90;;;;;;4976922;28;20037;-70
2022/10/08 06:43:16;;;;;;;10.77;2.35;;;11.70;99.90;;;;;;5011120;28;20045;-70
2022/10/08 06:45:44;;;;;;;7.20;1.77;;;11.70;99.90;;;;;;5003583;28;20134;-70
2022/10/08 06:48:11;;;;;;;9.30;1.90;;;11.60;99.90;;;;;;4994700;28;20092;-70
2022/10/08 06:50:37;;;;;;;6.53;2.05;;;11.70;99.90;;;;;;4994899;28;20038;-70
2022/10/08 06:53:03;;;;;;;9.55;1.63;;;11.80;99.90;;;;;;4992904;28;20510;-70
2022/10/08 06:55:30;;;;;;;8.60;2.28;;;11.80;99.90;;;;;;4977728;28;20042;-70
2022/10/08 06:57:56;;;;;;;10.70;1.50;;;11.80;99.90;;;;;;4993623;28;20607;-70
2022/10/08 07:00:22;;;;;;;9.48;2.42;;;11.80;99.90;;;;;;5010030;28;20125;-70
2022/10/08 07:02:47;;;;;;;12.85;2.20;;;11.80;99.90;;;;;;4992837;28;20404;-70
2022/10/08 07:05:13;;;;;;;9.00;2.10;;;11.80;99.90;;;;;;4977181;28;20049;-70
2022/10/08 07:07:38;;;;;;;6.57;1.70;;;11.90;99.90;;;;;;4994472;28;20066;-70
2022/10/08 07:10:04;;;;;;;11.00;2.20;;;12.00;99.90;;;;;;4993505;28;20039;-70
2022/10/08 07:12:31;;;;;;;9.38;2.53;;;12.00;99.90;;;;;;4994455;28;20042;-70
2022/10/08 07:14:57;;;;;;;8.35;1.70;;;11.90;99.90;;;;;;4993252;28;20089;-70
2022/10/08 07:17:25;;;;;;;12.70;2.72;;;11.90;99.90;;;;;;4993492;28;20428;-71
2022/10/08 07:19:51;;;;;;;13.68;2.40;;;11.90;99.90;;;;;;5010342;28;20042;-70
2022/10/08 07:22:17;;;;;;;9.32;2.00;;;12.00;99.90;;;;;;4976267;28;20058;-70
2022/10/08 07:24:42;;;;;;;9.25;1.80;;;12.00;99.90;;;;;;5013907;28;20474;-70
2022/10/08 07:27:08;;;;;;;8.75;1.52;;;11.90;99.90;;;;;;4991363;28;20046;-71
2022/10/08 07:29:33;;;;;;;9.70;1.75;;;11.90;99.90;;;;;;4994206;28;20047;-70
2022/10/08 07:31:59;;;;;;;9.30;1.73;;;11.90;99.90;;;;;;4992864;28;20404;-70
2022/10/08 07:34:24;;;;;;;8.57;1.80;;;11.90;99.90;;;;;;5009177;28;20045;-70
2022/10/08 07:36:51;;;;;;;10.00;1.85;;;11.90;99.90;;;;;;4992835;28;20031;-70
2022/10/08 07:39:18;;;;;;;8.80;2.00;;;11.90;99.90;;;;;;5009065;28;20042;-70
2022/10/08 07:41:44;;;;;;;11.20;2.15;;;12.00;99.90;;;;;;4977492;28;20035;-70
2022/10/08 07:44:11;;;;;;;8.93;2.03;;;12.00;99.90;;;;;;4977694;28;20050;-70
2022/10/08 07:46:41;;;;;;;9.50;1.55;;;12.00;99.90;;;;;;4976020;28;20125;-70
2022/10/08 07:49:06;;;;;;;10.23;1.67;;;12.10;99.90;;;;;;5010227;28;20184;-70
2022/10/08 07:51:33;;;;;;;8.23;1.60;;;12.10;99.90;;;;;;4977611;28;20124;-70
2022/10/08 07:54:00;;;;;;;8.85;2.40;;;12.10;99.90;;;;;;4992492;28;20125;-70
2022/10/08 07:56:26;;;;;;;9.32;1.55;;;12.10;99.90;;;;;;4976490;28;20045;-71
2022/10/08 07:58:51;;;;;;;10.98;1.77;;;12.10;99.90;;;;;;4993215;28;20058;-71
2022/10/08 08:01:27;;;;;;;9.30;2.10;;;12.10;99.90;;;;;;4976018;28;20045;-70
2022/10/08 08:03:54;;;;;;;11.85;1.55;;;12.10;99.90;;;;;;5008988;28;20411;-71
2022/10/08 08:06:20;;;;;;;8.15;1.58;;;12.20;99.90;;;;;;4992471;28;20046;-71
2022/10/08 08:08:46;;;;;;;9.63;1.67;;;12.20;99.90;;;;;;4993419;28;20129;-71
2022/10/08 08:11:14;;;;;;;10.23;2.67;;;12.30;99.90;;;;;;4993173;28;20052;-71
2022/10/08 08:13:41;;;;;;;8.75;1.77;;;12.40;99.90;;;;;;4976031;28;20046;-71
2022/10/08 08:16:13;;;;;;;13.80;1.88;;;12.40;99.90;;;;;;5024374;28;20030;-71
2022/10/08 08:18:41;;;;;;;9.63;1.80;;;12.40;99.90;;;;;;4993158;28;20038;-72
2022/10/08 08:21:12;;;;;;;8.77;1.65;;;12.50;99.90;;;;;;4976067;28;20034;-71
2022/10/08 08:23:41;;;;;;;6.67;1.73;;;12.50;99.90;;;;;;4994676;28;20124;-71
2022/10/08 08:26:15;;;;;;;11.23;1.70;;;12.50;99.90;;;;;;4981386;28;20531;-72
2022/10/08 08:28:41;;;;;;;11.00;1.50;;;12.60;99.90;;;;;;4992253;28;20121;-72
2022/10/08 08:31:16;;;;;;;7.90;1.83;;;12.60;99.90;;;;;;4991906;28;20078;-71
2022/10/08 08:33:45;;;;;;;10.80;1.60;;;12.70;99.90;;;;;;4992215;28;20084;-73
2022/10/08 08:36:11;;;;;;;11.05;2.03;;;12.70;99.90;;;;;;4993037;28;20050;-72
2022/10/08 08:38:37;;;;;;;8.02;1.58;;;12.80;99.90;;;;;;4992611;28;20608;-72
2022/10/08 08:41:32;;;;;;;8.05;1.35;;;12.80;99.90;;;;;;5009248;28;20038;-73
2022/10/08 08:43:59;;;;;;;10.50;1.90;;;12.90;99.90;;;;;;5009106;28;20096;-72
2022/10/08 08:46:28;;;;;;;13.45;1.58;;;13.00;99.90;;;;;;4992671;28;20046;-72
2022/10/08 08:48:57;;;;;;;8.90;1.90;;;13.00;99.90;;;;;;5009133;28;20142;-72
2022/10/08 08:51:23;;;;;;;9.27;1.40;;;13.00;99.90;;;;;;4976601;28;20492;-73
2022/10/08 08:53:48;;;;;;;8.77;1.45;;;13.10;99.90;;;;;;5008885;28;20035;-73
2022/10/08 08:56:19;;;;;;;7.55;1.58;;;13.10;99.90;;;;;;4992503;28;20045;-72
2022/10/08 08:59:20;;;;;;;6.38;1.27;;;13.20;99.90;;;;;;5008686;28;20435;-72
2022/10/08 09:01:47;;;;;;;9.00;1.58;;;13.30;99.90;;;;;;4968673;28;20042;-73
2022/10/08 09:04:37;;;;;;;8.13;1.30;;;13.40;99.90;;;;;;4992456;28;20088;-72
2022/10/08 09:07:10;;;;;;;9.32;1.63;;;13.50;99.90;;;;;;4992387;28;20042;-72
2022/10/08 09:09:39;;;;;;;6.35;1.00;;;13.60;99.90;;;;;;4976288;28;20504;-72
2022/10/08 09:12:40;;;;;;;8.88;1.10;;;13.60;99.90;;;;;;4992382;28;20507;-72
2022/10/08 09:15:22;;;;;;;6.93;1.40;;;13.60;99.90;;;;;;4976145;28;20053;-72
2022/10/08 09:17:51;;;;;;;7.93;1.30;;;13.70;99.90;;;;;;4989264;28;20049;-73
2022/10/08 09:20:17;;;;;;;7.18;1.13;;;13.70;99.90;;;;;;4992222;28;20496;-73
2022/10/08 09:22:44;;;;;;;9.73;1.50;;;13.80;99.90;;;;;;4974199;28;20038;-73
2022/10/08 09:25:27;;;;;;;10.00;1.20;;;14.00;99.90;;;;;;4974058;28;20081;-72
2022/10/08 09:28:02;;;;;;;9.27;1.45;;;14.10;99.90;;;;;;4992454;28;20046;-73
2022/10/08 09:30:40;;;;;;;7.38;1.58;;;14.10;99.90;;;;;;4976092;28;20046;-72
2022/10/08 09:33:11;;;;;;;5.38;0.93;;;14.10;99.90;;;;;;4988468;28;20047;-73
2022/10/08 09:35:46;;;;;;;9.32;1.25;;;14.10;99.90;;;;;;4999135;28;20046;-73
2022/10/08 09:38:20;;;;;;;7.82;1.10;;;14.10;99.90;;;;;;5004319;28;20050;-73
2022/10/08 09:41:15;;;;;;;6.82;1.20;;;14.10;99.90;;;;;;4994420;28;20046;-73
2022/10/08 09:43:41;;;;;;;6.30;1.10;;;14.20;99.90;;;;;;5012442;28;20042;-73
2022/10/08 09:46:27;;;;;;;6.25;1.00;;;14.20;99.90;;;;;;5010432;28;20516;-73
2022/10/08 09:48:52;;;;;;;8.43;1.23;;;14.20;99.90;;;;;;5011557;28;20128;-73
2022/10/08 09:51:18;;;;;;;7.03;1.00;;;14.20;99.90;;;;;;5008776;28;20085;-73
2022/10/08 09:53:51;;;;;;;9.18;1.20;;;14.30;99.90;;;;;;5022559;28;20043;-73
2022/10/08 09:56:29;;;;;;;9.25;1.40;;;14.40;99.90;;;;;;5009165;28;20105;-74
2022/10/08 09:59:01;;;;;;;7.63;1.20;;;14.50;99.90;;;;;;4994183;28;20495;-73
2022/10/08 10:01:30;;;;;;;9.65;1.40;;;14.70;99.90;;;;;;5011787;28;20089;-73
2022/10/08 10:03:58;;;;;;;7.38;1.00;;;14.90;99.90;;;;;;5010577;28;20144;-74
2022/10/08 10:06:33;;;;;;;10.40;1.17;;;15.00;99.90;;;;;;4976154;28;20104;-73
2022/10/08 10:09:10;;;;;;;9.27;1.40;;;15.00;99.90;;;;;;4975479;28;20066;-74
2022/10/08 10:11:53;;;;;;;8.70;1.30;;;15.10;99.90;;;;;;4978404;28;20042;-74
2022/10/08 10:14:28;;;;;;;6.25;1.25;;;15.00;99.90;;;;;;4994496;28;20042;-74
2022/10/08 10:17:23;;;;;;;8.57;1.23;;;14.90;99.90;;;;;;4994775;28;20492;-73
2022/10/08 10:19:58;;;;;;;10.45;1.33;;;14.90;99.90;;;;;;4998884;28;20046;-74
2022/10/08 10:22:31;;;;;;;7.00;1.30;;;14.80;99.90;;;;;;5008304;28;20452;-74
2022/10/08 10:25:09;;;;;;;7.13;1.20;;;14.90;99.90;;;;;;4990214;28;20492;-74
2022/10/08 10:27:39;;;;;;;7.72;1.00;;;14.80;99.90;;;;;;4978520;28;20035;-74
2022/10/08 10:30:14;;;;;;;5.22;1.08;;;14.80;99.90;;;;;;4992396;28;20092;-74
2022/10/08 10:32:53;;;;;;;7.78;1.20;;;14.70;99.90;;;;;;4993460;28;20121;-74
2022/10/08 10:35:24;;;;;;;9.70;1.25;;;14.70;99.90;;;;;;5007796;28;20102;-74
2022/10/08 10:37:58;;;;;;;7.82;1.20;;;14.60;99.90;;;;;;4973994;28;20050;-74
2022/10/08 10:40:38;;;;;;;4.78;1.02;;;14.50;99.90;;;;;;5007848;28;20062;-74
2022/10/08 10:43:29;;;;;;;9.15;1.33;;;14.50;99.90;;;;;;4988774;28;20049;-74
2022/10/08 10:46:27;;;;;;;6.65;1.08;;;14.40;99.90;;;;;;4978014;28;20038;-74
2022/10/08 10:48:54;;;;;;;10.35;1.52;;;14.30;99.90;;;;;;4963784;28;20127;-74
2022/10/08 10:51:26;;;;;;;6.28;1.10;;;14.30;99.90;;;;;;4990327;28;20038;-74
2022/10/08 10:54:17;;;;;;;8.20;1.90;;;14.40;99.90;;;;;;5009226;28;20121;-74
2022/10/08 10:56:50;;;;;;;9.27;1.33;;;14.50;99.90;;;;;;4990746;28;20035;-73
2022/10/08 10:59:21;;;;;;;9.10;2.10;;;14.70;99.90;;;;;;4990587;28;20050;-73
2022/10/08 11:02:03;;;;;;;5.03;1.00;;;14.70;99.90;;;;;;4993503;28;20097;-74
2022/10/08 11:04:55;;;;;;;9.50;1.70;;;14.80;99.90;;;;;;4992911;28;20647;-74
2022/10/08 11:07:39;;;;;;;7.07;1.35;;;14.80;99.90;;;;;;4992034;28;20042;-74
2022/10/08 11:10:15;;;;;;;5.40;1.45;;;14.70;99.90;;;;;;4976436;28;20299;-75
2022/10/08 11:12:59;;;;;;;8.05;1.15;;;14.70;99.90;;;;;;4998609;28;20053;-75
2022/10/08 11:15:35;;;;;;;6.80;1.10;;;14.70;99.90;;;;;;4991506;28;20038;-75
2022/10/08 11:18:09;;;;;;;6.03;1.23;;;14.80;99.90;;;;;;4992585;28;20042;-75
2022/10/08 11:20:47;;;;;;;6.00;1.63;;;14.80;99.90;;;;;;4979651;28;20064;-75
2022/10/08 11:23:49;;;;;;;6.93;1.10;;;14.70;99.90;;;;;;4991641;28;20050;-75
2022/10/08 11:26:27;;;;;;;5.30;1.38;;;14.70;99.90;;;;;;4976429;28;20050;-75
2022/10/08 11:29:11;;;;;;;6.45;1.00;;;14.80;99.90;;;;;;4981080;28;20082;-75
2022/10/08 11:31:45;;;;;;;7.25;0.85;;;14.80;99.90;;;;;;4957621;28;20074;-74
2022/10/08 11:34:31;;;;;;;7.07;1.10;;;14.90;99.90;;;;;;4975268;28;20100;-74
2022/10/08 11:37:14;;;;;;;9.30;1.30;;;14.90;99.90;;;;;;4976160;28;20085;-74
2022/10/08 11:40:04;;;;;;;7.97;1.73;;;14.80;99.90;;;;;;4991580;28;20085;-74
2022/10/08 11:42:38;;;;;;;7.30;1.10;;;14.90;99.90;;;;;;5002630;28;20038;-74
2022/10/08 11:45:27;;;;;;;8.98;1.65;;;14.90;99.90;;;;;;4991879;28;20086;-74
2022/10/08 11:47:56;;;;;;;5.45;1.30;;;14.90;99.90;;;;;;4992502;28;20102;-74
2022/10/08 11:50:33;;;;;;;9.82;1.20;;;15.10;99.90;;;;;;4976377;28;20507;-74
2022/10/08 11:53:13;;;;;;;9.20;1.50;;;15.20;99.90;;;;;;5008092;28;20125;-74
2022/10/08 11:55:55;;;;;;;8.18;1.45;;;15.20;99.90;;;;;;4991980;28;20057;-74
2022/10/08 11:58:32;;;;;;;9.82;1.20;;;15.20;99.90;;;;;;4992407;28;20062;-74
2022/10/08 12:01:04;;;;;;;6.13;1.02;;;15.30;99.90;;;;;;4991380;28;20527;-75
2022/10/08 12:03:40;;;;;;;7.60;1.48;;;15.50;99.90;;;;;;5025520;28;20123;-74
2022/10/08 12:06:23;;;;;;;11.32;1.52;;;15.30;99.90;;;;;;5008521;28;20038;-74
2022/10/08 12:08:56;;;;;;;6.75;1.40;;;15.20;99.90;;;;;;4992627;28;20358;-75
2022/10/08 12:11:46;;;;;;;7.10;1.27;;;15.20;99.90;;;;;;4993033;28;20042;-74
2022/10/08 12:14:11;;;;;;;9.55;1.73;;;15.30;99.90;;;;;;4997201;28;20104;-75
2022/10/08 12:16:46;;;;;;;7.57;1.13;;;15.40;99.90;;;;;;4991859;28;20034;-75
2022/10/08 12:19:33;;;;;;;11.23;1.48;;;15.50;99.90;;;;;;4975414;28;20497;-75
2022/10/08 12:22:24;;;;;;;8.63;1.40;;;15.50;99.90;;;;;;4976554;28;20038;-75
2022/10/08 12:25:00;;;;;;;8.88;1.50;;;15.60;99.90;;;;;;4992700;28;20444;-75
2022/10/08 12:27:36;;;;;;;9.68;1.40;;;15.70;99.90;;;;;;4992004;28;20082;-75
2022/10/08 12:30:09;;;;;;;9.85;1.52;;;15.80;99.90;;;;;;4992359;28;20070;-75
2022/10/08 12:32:38;;;;;;;8.82;1.60;;;15.80;99.90;;;;;;4991578;28;20488;-75
2022/10/08 12:35:04;;;;;;;6.95;1.10;;;15.80;99.90;;;;;;4991717;28;20088;-75
2022/10/08 12:38:12;;;;;;;8.77;1.33;;;15.90;99.90;;;;;;4992101;28;20512;-75
2022/10/08 12:40:47;;;;;;;8.57;1.35;;;15.90;99.90;;;;;;4969210;28;20049;-75
2022/10/08 12:43:48;;;;;;;9.98;1.60;;;15.80;99.90;;;;;;4975616;28;20050;-76
2022/10/08 12:46:37;;;;;;;5.32;1.00;;;15.90;99.90;;;;;;4973085;28;20038;-75
2022/10/08 12:49:26;;;;;;;5.75;1.23;;;15.90;99.90;;;;;;4991331;28;20046;-75
2022/10/08 12:52:18;;;;;;;6.55;1.08;;;16.00;99.90;;;;;;4989096;28;20046;-75
2022/10/08 12:54:58;;;;;;;10.38;1.60;;;15.90;99.90;;;;;;4980038;28;20047;-75
2022/10/08 12:57:28;;;;;;;10.52;1.13;;;15.90;99.90;;;;;;4997200;28;20073;-74
2022/10/08 12:59:56;;;;;;;9.32;1.20;;;15.90;99.90;;;;;;4969904;28;20039;-75
2022/10/08 13:02:27;;;;;;;7.47;1.20;;;15.70;99.90;;;;;;4988993;28;20110;-75
2022/10/08 13:04:52;;;;;;;8.85;1.60;;;15.70;99.90;;;;;;4989096;28;20041;-84
2022/10/08 13:07:32;;;;;;;10.15;1.60;;;15.60;99.90;;;;;;4990334;28;20121;-75
2022/10/08 13:10:00;;;;;;;6.50;1.20;;;15.60;99.90;;;;;;4974855;28;20518;-75
2022/10/08 13:12:26;;;;;;;9.45;1.50;;;15.70;99.90;;;;;;4977450;28;20069;-75